Terminal Aerodrome Forecast
Issued by NWS Sterling, VA

Current Version | Previous Version | Graphics & Text | Print | Product List | Glossary On
Versions: 1 2 3 4 5 6 7 8 9 10 11 12 13 14 15 16 17 18 19 20 21 22
000
FTUS41 KLWX 160500 RRA
TAFIAD
TAF
KIAD 160541Z 1606/1712 33019G30KT P6SM SCT050
     FM161200 34017G25KT P6SM FEW060
     FM161800 01013G18KT P6SM SKC
     FM162200 03008KT P6SM SKC
     FM170000 05004KT P6SM SKC=

USA.gov is the U.S. government's official web portal to all federal, state and local government web resources and services.